Time,TemperatureF,DewpointF,PressureIn,WindDirection,WindDirectionDegrees,WindSpeedMPH,WindSpeedGustMPH,Humidity,HourlyPrecipIn,Conditions,Clouds,dailyrainin,SoftwareType,DateUTC
2013-03-29 00:02:00,49.0,37.0,-100.00,North,352,1.0,3.0,64,-99.99,,,-99.99,,2013-03-29 07:02:00,
2013-03-29 00:12:00,49.0,37.0,-100.00,North,11,2.0,3.0,64,-99.99,,,-99.99,,2013-03-29 07:12:00,
2013-03-29 00:21:00,48.0,36.0,-100.00,North,7,1.0,2.0,64,-99.99,,,-99.99,,2013-03-29 07:21:00,
2013-03-29 00:32:00,46.0,36.0,-100.00,ENE,64,0.0,2.0,67,-99.99,,,-99.99,,2013-03-29 07:32:00,
2013-03-29 00:42:00,46.0,36.0,-100.00,NE,48,1.0,2.0,69,-99.99,,,-99.99,,2013-03-29 07:42:00,
2013-03-29 00:52:00,46.0,36.0,-100.00,ENE,57,2.0,3.0,68,-99.99,,,-99.99,,2013-03-29 07:52:00,
2013-03-29 01:01:00,46.0,37.0,-100.00,NNE,23,2.0,3.0,70,-99.99,,,-99.99,,2013-03-29 08:01:00,
2013-03-29 01:12:00,46.0,36.0,-100.00,NE,40,2.0,3.0,69,-99.99,,,-99.99,,2013-03-29 08:12:00,
2013-03-29 01:22:00,45.0,37.0,-100.00,North,8,3.0,3.0,72,-99.99,,,-99.99,,2013-03-29 08:22:00,
2013-03-29 01:32:00,45.0,37.0,-100.00,North,8,3.0,3.0,72,-99.99,,,-99.99,,2013-03-29 08:32:00,
2013-03-29 01:42:00,45.0,37.0,-100.00,ENE,57,2.0,4.0,73,-99.99,,,-99.99,,2013-03-29 08:42:00,
2013-03-29 01:52:00,45.0,37.0,-100.00,North,11,1.0,3.0,72,-99.99,,,-99.99,,2013-03-29 08:52:00,
2013-03-29 02:02:00,44.0,36.0,-100.00,NNE,15,2.0,3.0,74,-99.99,,,-99.99,,2013-03-29 09:02:00,
2013-03-29 02:12:00,44.0,37.0,-100.00,North,10,3.0,4.0,75,-99.99,,,-99.99,,2013-03-29 09:12:00,
2013-03-29 02:22:00,45.0,37.0,-100.00,NNE,26,3.0,4.0,73,-99.99,,,-99.99,,2013-03-29 09:22:00,
2013-03-29 02:32:00,45.0,37.0,-100.00,NNE,30,3.0,4.0,74,-99.99,,,-99.99,,2013-03-29 09:32:00,
2013-03-29 02:42:00,44.0,36.0,-100.00,NE,49,2.0,3.0,74,-99.99,,,-99.99,,2013-03-29 09:42:00,
2013-03-29 02:52:00,43.0,36.0,-100.00,NNE,21,0.0,1.0,75,-99.99,,,-99.99,,2013-03-29 09:52:00,
2013-03-29 03:02:00,43.0,36.0,-100.00,NNE,32,1.0,3.0,77,-99.99,,,-99.99,,2013-03-29 10:02:00,
2013-03-29 03:12:00,45.0,37.0,-100.00,NE,39,1.0,2.0,74,-99.99,,,-99.99,,2013-03-29 10:12:00,
2013-03-29 03:22:00,45.0,37.0,-100.00,NE,34,2.0,2.0,73,-99.99,,,-99.99,,2013-03-29 10:22:00,
2013-03-29 03:33:00,45.0,37.0,-100.00,NE,46,1.0,2.0,73,-99.99,,,-99.99,,2013-03-29 10:33:00,
2013-03-29 03:42:00,44.0,36.0,-100.00,NNE,33,2.0,3.0,74,-99.99,,,-99.99,,2013-03-29 10:42:00,
2013-03-29 03:52:00,45.0,37.0,-100.00,ENE,68,2.0,3.0,72,-99.99,,,-99.99,,2013-03-29 10:52:00,
2013-03-29 04:02:00,44.0,36.0,-100.00,NNE,32,1.0,3.0,73,-99.99,,,-99.99,,2013-03-29 11:02:00,
2013-03-29 04:12:00,44.0,36.0,-100.00,ENE,62,2.0,4.0,72,-99.99,,,-99.99,,2013-03-29 11:12:00,
2013-03-29 04:23:00,45.0,37.0,-100.00,NNW,343,2.0,5.0,72,-99.99,,,-99.99,,2013-03-29 11:23:00,
2013-03-29 04:32:00,46.0,35.0,-100.00,NNE,32,3.0,6.0,66,-99.99,,,-99.99,,2013-03-29 11:32:00,
2013-03-29 04:42:00,45.0,35.0,-100.00,NNE,31,2.0,4.0,67,-99.99,,,-99.99,,2013-03-29 11:42:00,
2013-03-29 04:52:00,45.0,35.0,-100.00,ENE,78,1.0,3.0,68,-99.99,,,-99.99,,2013-03-29 11:52:00,
2013-03-29 05:02:00,45.0,35.0,-100.00,ENE,74,1.0,3.0,67,-99.99,,,-99.99,,2013-03-29 12:02:00,
2013-03-29 05:12:00,45.0,35.0,-100.00,NNE,21,2.0,5.0,67,-99.99,,,-99.99,,2013-03-29 12:12:00,
2013-03-29 05:22:00,45.0,34.0,-100.00,NE,43,2.0,4.0,66,-99.99,,,-99.99,,2013-03-29 12:22:00,
2013-03-29 05:32:00,44.0,34.0,-100.00,NE,48,1.0,2.0,67,-99.99,,,-99.99,,2013-03-29 12:32:00,
2013-03-29 05:42:00,44.0,33.0,-100.00,NE,40,2.0,4.0,66,-99.99,,,-99.99,,2013-03-29 12:42:00,
2013-03-29 05:51:00,44.0,34.0,-100.00,NE,45,1.0,2.0,67,-99.99,,,-99.99,,2013-03-29 12:51:00,
2013-03-29 06:02:00,44.0,33.0,-100.00,NNE,19,1.0,3.0,65,-99.99,,,-99.99,,2013-03-29 13:02:00,
2013-03-29 06:12:00,45.0,33.0,-100.00,NNE,21,3.0,5.0,63,-99.99,,,-99.99,,2013-03-29 13:12:00,
2013-03-29 06:22:00,45.0,32.0,-100.00,NNE,17,3.0,4.0,61,-99.99,,,-99.99,,2013-03-29 13:22:00,
2013-03-29 06:32:00,44.0,32.0,-100.00,NE,51,2.0,3.0,62,-99.99,,,-99.99,,2013-03-29 13:32:00,
2013-03-29 06:42:00,45.0,32.0,-100.00,NE,43,2.0,3.0,61,-99.99,,,-99.99,,2013-03-29 13:42:00,
2013-03-29 06:52:00,45.0,32.0,-100.00,ENE,57,2.0,3.0,60,-99.99,,,-99.99,,2013-03-29 13:52:00,
2013-03-29 07:02:00,44.0,31.0,-100.00,NNE,26,2.0,3.0,61,-99.99,,,-99.99,,2013-03-29 14:02:00,
2013-03-29 07:12:00,46.0,32.0,-100.00,North,4,3.0,5.0,57,-99.99,,,-99.99,,2013-03-29 14:12:00,
2013-03-29 07:22:00,46.0,32.0,-100.00,NNE,31,2.0,5.0,58,-99.99,,,-99.99,,2013-03-29 14:22:00,
2013-03-29 07:32:00,45.0,32.0,-100.00,NNE,28,2.0,4.0,60,-99.99,,,-99.99,,2013-03-29 14:32:00,
2013-03-29 07:42:00,46.0,32.0,-100.00,NNE,29,2.0,4.0,58,-99.99,,,-99.99,,2013-03-29 14:42:00,
2013-03-29 07:52:00,47.0,32.0,-100.00,NE,48,2.0,3.0,56,-99.99,,,-99.99,,2013-03-29 14:52:00,
2013-03-29 08:02:00,48.0,33.0,-100.00,NE,37,2.0,2.0,56,-99.99,,,-99.99,,2013-03-29 15:02:00,
2013-03-29 08:12:00,50.0,33.0,-100.00,North,10,1.0,3.0,52,-99.99,,,-99.99,,2013-03-29 15:12:00,
2013-03-29 08:22:00,52.0,32.0,-100.00,ENE,65,2.0,4.0,47,-99.99,,,-99.99,,2013-03-29 15:22:00,
2013-03-29 08:33:00,53.0,34.0,-100.00,ESE,117,1.0,3.0,48,-99.99,,,-99.99,,2013-03-29 15:33:00,
2013-03-29 08:42:00,56.0,34.0,-100.00,SE,129,1.0,2.0,43,-99.99,,,-99.99,,2013-03-29 15:42:00,
2013-03-29 08:52:00,57.0,32.0,-100.00,ESE,111,1.0,2.0,39,-99.99,,,-99.99,,2013-03-29 15:52:00,
2013-03-29 09:03:00,59.0,33.0,-100.00,ESE,113,1.0,2.0,37,-99.99,,,-99.99,,2013-03-29 16:03:00,
2013-03-29 09:12:00,61.0,32.0,-100.00,SE,137,1.0,2.0,34,-99.99,,,-99.99,,2013-03-29 16:12:00,
2013-03-29 09:23:00,60.0,34.0,-100.00,SSW,192,4.0,5.0,37,-99.99,,,-99.99,,2013-03-29 16:23:00,
2013-03-29 09:32:00,59.0,35.0,-100.00,South,187,4.0,6.0,41,-99.99,,,-99.99,,2013-03-29 16:32:00,
2013-03-29 09:42:00,61.0,35.0,-100.00,South,176,2.0,4.0,38,-99.99,,,-99.99,,2013-03-29 16:42:00,
2013-03-29 09:52:00,63.0,36.0,-100.00,South,186,2.0,4.0,36,-99.99,,,-99.99,,2013-03-29 16:52:00,
2013-03-29 10:02:00,65.0,34.0,-100.00,South,176,1.0,2.0,32,-99.99,,,-99.99,,2013-03-29 17:02:00,
2013-03-29 10:12:00,66.0,32.0,-100.00,SSE,160,1.0,3.0,28,-99.99,,,-99.99,,2013-03-29 17:12:00,
2013-03-29 10:22:00,68.0,34.0,-100.00,SSE,153,1.0,3.0,28,-99.99,,,-99.99,,2013-03-29 17:22:00,
2013-03-29 10:32:00,69.0,34.0,-100.00,South,182,1.0,4.0,27,-99.99,,,-99.99,,2013-03-29 17:32:00,
2013-03-29 10:42:00,69.0,33.0,-100.00,SSW,201,3.0,7.0,26,-99.99,,,-99.99,,2013-03-29 17:42:00,
2013-03-29 10:52:00,69.0,33.0,-100.00,SSW,196,5.0,8.0,26,-99.99,,,-99.99,,2013-03-29 17:52:00,
2013-03-29 11:02:00,70.0,30.0,-100.00,South,184,7.0,13.0,23,-99.99,,,-99.99,,2013-03-29 18:02:00,
2013-03-29 11:12:00,70.0,28.0,-100.00,South,174,7.0,12.0,21,-99.99,,,-99.99,,2013-03-29 18:12:00,
2013-03-29 11:22:00,70.0,27.0,-100.00,South,177,9.0,14.0,20,-99.99,,,-99.99,,2013-03-29 18:22:00,
2013-03-29 11:32:00,70.0,27.0,-100.00,SSE,151,7.0,12.0,20,-99.99,,,-99.99,,2013-03-29 18:32:00,
2013-03-29 11:42:00,71.0,28.0,-100.00,SSE,151,5.0,10.0,20,-99.99,,,-99.99,,2013-03-29 18:42:00,
2013-03-29 11:52:00,71.0,28.0,-100.00,SSW,201,10.0,16.0,20,-99.99,,,-99.99,,2013-03-29 18:52:00,
2013-03-29 12:02:00,71.0,28.0,-100.00,SSW,194,7.0,12.0,20,-99.99,,,-99.99,,2013-03-29 19:02:00,
2013-03-29 12:12:00,72.0,27.0,-100.00,SSW,201,8.0,14.0,19,-99.99,,,-99.99,,2013-03-29 19:12:00,
2013-03-29 12:22:00,72.0,27.0,-100.00,SSW,203,8.0,16.0,19,-99.99,,,-99.99,,2013-03-29 19:22:00,
2013-03-29 12:32:00,72.0,26.0,-100.00,SSW,198,7.0,14.0,18,-99.99,,,-99.99,,2013-03-29 19:32:00,
2013-03-29 12:42:00,72.0,27.0,-100.00,South,187,6.0,11.0,19,-99.99,,,-99.99,,2013-03-29 19:42:00,
2013-03-29 12:52:00,73.0,30.0,-100.00,South,186,6.0,12.0,20,-99.99,,,-99.99,,2013-03-29 19:52:00,
2013-03-29 13:02:00,73.0,28.0,-100.00,South,171,6.0,13.0,19,-99.99,,,-99.99,,2013-03-29 20:02:00,
2013-03-29 13:12:00,73.0,28.0,-100.00,SSE,163,7.0,13.0,19,-99.99,,,-99.99,,2013-03-29 20:12:00,
2013-03-29 13:22:00,73.0,30.0,-100.00,South,176,7.0,14.0,20,-99.99,,,-99.99,,2013-03-29 20:22:00,
2013-03-29 13:32:00,73.0,32.0,-100.00,SSE,164,9.0,16.0,22,-99.99,,,-99.99,,2013-03-29 20:32:00,
2013-03-29 13:42:00,73.0,33.0,-100.00,South,177,7.0,12.0,23,-99.99,,,-99.99,,2013-03-29 20:42:00,
2013-03-29 13:52:00,73.0,33.0,-100.00,South,173,5.0,10.0,23,-99.99,,,-99.99,,2013-03-29 20:52:00,
2013-03-29 14:02:00,73.0,33.0,-100.00,South,173,5.0,10.0,23,-99.99,,,-99.99,,2013-03-29 21:02:00,
2013-03-29 14:12:00,73.0,37.0,-100.00,South,183,8.0,16.0,27,-99.99,,,-99.99,,2013-03-29 21:12:00,
2013-03-29 14:22:00,72.0,36.0,-100.00,South,183,10.0,14.0,27,-99.99,,,-99.99,,2013-03-29 21:22:00,
2013-03-29 14:32:00,72.0,37.0,-100.00,South,188,9.0,12.0,28,-99.99,,,-99.99,,2013-03-29 21:32:00,
2013-03-29 14:42:00,72.0,37.0,-100.00,SSE,168,5.0,11.0,28,-99.99,,,-99.99,,2013-03-29 21:42:00,
2013-03-29 14:52:00,72.0,37.0,-100.00,SSW,197,6.0,12.0,28,-99.99,,,-99.99,,2013-03-29 21:52:00,
2013-03-29 15:02:00,72.0,36.0,-100.00,SSW,196,9.0,12.0,27,-99.99,,,-99.99,,2013-03-29 22:02:00,
2013-03-29 15:12:00,72.0,36.0,-100.00,South,185,6.0,12.0,27,-99.99,,,-99.99,,2013-03-29 22:12:00,
2013-03-29 15:22:00,73.0,36.0,-100.00,South,185,7.0,13.0,26,-99.99,,,-99.99,,2013-03-29 22:22:00,
2013-03-29 15:33:00,73.0,36.0,-100.00,South,185,7.0,13.0,26,-99.99,,,-99.99,,2013-03-29 22:33:00,
2013-03-29 15:42:00,72.0,37.0,-100.00,SSW,211,9.0,15.0,28,-99.99,,,-99.99,,2013-03-29 22:42:00,
2013-03-29 15:52:00,71.0,37.0,-100.00,SSW,211,7.0,12.0,29,-99.99,,,-99.99,,2013-03-29 22:52:00,
2013-03-29 16:02:00,72.0,37.0,-100.00,WSW,239,9.0,14.0,28,-99.99,,,-99.99,,2013-03-29 23:02:00,
2013-03-29 16:12:00,71.0,37.0,-100.00,SW,225,9.0,15.0,29,-99.99,,,-99.99,,2013-03-29 23:12:00,
2013-03-29 16:22:00,70.0,37.0,-100.00,WSW,250,10.0,15.0,30,-99.99,,,-99.99,,2013-03-29 23:22:00,
2013-03-29 16:32:00,70.0,35.0,-100.00,WSW,237,10.0,14.0,28,-99.99,,,-99.99,,2013-03-29 23:32:00,
2013-03-29 16:42:00,70.0,36.0,-100.00,WSW,243,8.0,12.0,29,-99.99,,,-99.99,,2013-03-29 23:42:00,
2013-03-29 16:52:00,70.0,38.0,-100.00,SW,227,8.0,12.0,31,-99.99,,,-99.99,,2013-03-29 23:52:00,
2013-03-29 17:02:00,70.0,38.0,-100.00,SW,227,8.0,12.0,31,-99.99,,,-99.99,,2013-03-30 00:02:00,
2013-03-29 17:11:00,70.0,38.0,-100.00,SW,228,8.0,14.0,31,-99.99,,,-99.99,,2013-03-30 00:11:00,
2013-03-29 17:22:00,69.0,37.0,-100.00,SW,231,7.0,10.0,31,-99.99,,,-99.99,,2013-03-30 00:22:00,
2013-03-29 17:32:00,69.0,39.0,-100.00,SW,230,5.0,8.0,33,-99.99,,,-99.99,,2013-03-30 00:32:00,
2013-03-29 17:42:00,69.0,39.0,-100.00,SW,219,6.0,8.0,34,-99.99,,,-99.99,,2013-03-30 00:42:00,
2013-03-29 17:52:00,69.0,41.0,-100.00,SW,234,7.0,11.0,36,-99.99,,,-99.99,,2013-03-30 00:52:00,
2013-03-29 18:02:00,68.0,39.0,-100.00,WSW,240,6.0,9.0,35,-99.99,,,-99.99,,2013-03-30 01:02:00,
2013-03-29 18:12:00,69.0,42.0,-100.00,SSW,211,5.0,8.0,37,-99.99,,,-99.99,,2013-03-30 01:12:00,
2013-03-29 18:22:00,68.0,42.0,-100.00,SW,220,3.0,6.0,39,-99.99,,,-99.99,,2013-03-30 01:22:00,
2013-03-29 18:32:00,67.0,44.0,-100.00,WNW,302,4.0,10.0,44,-99.99,,,-99.99,,2013-03-30 01:32:00,
2013-03-29 18:42:00,66.0,45.0,-100.00,WNW,290,4.0,7.0,46,-99.99,,,-99.99,,2013-03-30 01:42:00,
2013-03-29 18:52:00,66.0,44.0,-100.00,West,273,3.0,6.0,45,-99.99,,,-99.99,,2013-03-30 01:52:00,
2013-03-29 19:02:00,66.0,44.0,-100.00,West,273,3.0,6.0,45,-99.99,,,-99.99,,2013-03-30 02:02:00,
2013-03-29 19:12:00,66.0,45.0,-100.00,SSW,212,2.0,5.0,46,-99.99,,,-99.99,,2013-03-30 02:12:00,
2013-03-29 19:22:00,65.0,43.0,-100.00,South,185,2.0,3.0,45,-99.99,,,-99.99,,2013-03-30 02:22:00,
2013-03-29 19:32:00,64.0,42.0,-100.00,SE,144,4.0,6.0,44,-99.99,,,-99.99,,2013-03-30 02:32:00,
2013-03-29 19:42:00,64.0,47.0,-100.00,SSE,149,5.0,7.0,53,-99.99,,,-99.99,,2013-03-30 02:42:00,
2013-03-29 19:52:00,63.0,48.0,-100.00,SE,140,5.0,7.0,57,-99.99,,,-99.99,,2013-03-30 02:52:00,
2013-03-29 20:02:00,63.0,47.0,-100.00,ESE,115,2.0,4.0,55,-99.99,,,-99.99,,2013-03-30 03:02:00,
2013-03-29 20:12:00,61.0,47.0,-100.00,SE,145,1.0,3.0,59,-99.99,,,-99.99,,2013-03-30 03:12:00,
2013-03-29 20:21:00,61.0,47.0,-100.00,SW,219,3.0,5.0,59,-99.99,,,-99.99,,2013-03-30 03:21:00,
2013-03-29 20:32:00,61.0,48.0,-100.00,SSE,165,1.0,2.0,62,-99.99,,,-99.99,,2013-03-30 03:32:00,
2013-03-29 20:43:00,60.0,47.0,-100.00,NNW,340,3.0,4.0,61,-99.99,,,-99.99,,2013-03-30 03:43:00,
2013-03-29 20:52:00,60.0,47.0,-100.00,West,268,1.0,3.0,61,-99.99,,,-99.99,,2013-03-30 03:52:00,
2013-03-29 21:02:00,59.0,46.0,-100.00,ESE,117,3.0,5.0,63,-99.99,,,-99.99,,2013-03-30 04:02:00,
2013-03-29 21:12:00,58.0,47.0,-100.00,South,169,3.0,4.0,68,-99.99,,,-99.99,,2013-03-30 04:12:00,
2013-03-29 21:22:00,57.0,47.0,-100.00,South,170,2.0,3.0,70,-99.99,,,-99.99,,2013-03-30 04:22:00,
2013-03-29 21:32:00,57.0,48.0,-100.00,SSE,160,1.0,3.0,71,-99.99,,,-99.99,,2013-03-30 04:32:00,
2013-03-29 21:42:00,56.0,47.0,-100.00,SE,138,2.0,4.0,72,-99.99,,,-99.99,,2013-03-30 04:42:00,
2013-03-29 21:52:00,56.0,47.0,-100.00,SSE,161,2.0,5.0,73,-99.99,,,-99.99,,2013-03-30 04:52:00,
2013-03-29 22:02:00,55.0,47.0,-100.00,West,263,1.0,4.0,75,-99.99,,,-99.99,,2013-03-30 05:02:00,
2013-03-29 22:12:00,55.0,47.0,-100.00,WNW,289,2.0,3.0,75,-99.99,,,-99.99,,2013-03-30 05:12:00,
2013-03-29 22:22:00,55.0,47.0,-100.00,NW,325,2.0,3.0,75,-99.99,,,-99.99,,2013-03-30 05:22:00,
2013-03-29 22:32:00,55.0,47.0,-100.00,NNW,333,2.0,3.0,75,-99.99,,,-99.99,,2013-03-30 05:32:00,
2013-03-29 22:42:00,55.0,47.0,-100.00,North,350,0.0,2.0,74,-99.99,,,-99.99,,2013-03-30 05:42:00,
2013-03-29 22:52:00,55.0,47.0,-100.00,SE,143,1.0,3.0,74,-99.99,,,-99.99,,2013-03-30 05:52:00,
2013-03-29 23:01:00,55.0,47.0,-100.00,SE,143,1.0,3.0,74,-99.99,,,-99.99,,2013-03-30 06:01:00,
2013-03-29 23:11:00,54.0,47.0,-100.00,West,274,1.0,2.0,77,-99.99,,,-99.99,,2013-03-30 06:11:00,
2013-03-29 23:22:00,54.0,47.0,-100.00,North,353,3.0,4.0,76,-99.99,,,-99.99,,2013-03-30 06:22:00,
2013-03-29 23:32:00,55.0,47.0,-100.00,North,349,4.0,5.0,75,-99.99,,,-99.99,,2013-03-30 06:32:00,
2013-03-29 23:42:00,55.0,47.0,-100.00,North,8,3.0,4.0,74,-99.99,,,-99.99,,2013-03-30 06:42:00,
2013-03-29 23:52:00,55.0,44.0,-100.00,NNW,347,2.0,5.0,66,-99.99,,,-99.99,,2013-03-30 06:52:00,